createdAt,value
2019-03-27T00:01:49.887Z,8.17
2019-03-27T00:04:18.162Z,8.23
2019-03-27T00:06:47.724Z,6.73
2019-03-27T00:09:16.210Z,7.60
2019-03-27T00:11:44.472Z,9.37
2019-03-27T00:14:12.798Z,7.63
2019-03-27T00:16:41.134Z,6.93
2019-03-27T00:19:09.477Z,8.30
2019-03-27T00:21:37.852Z,6.43
2019-03-27T00:24:06.190Z,5.67
2019-03-27T00:26:34.464Z,7.73
2019-03-27T00:29:02.777Z,4.53
2019-03-27T00:31:31.066Z,7.37
2019-03-27T00:34:02.457Z,6.53
2019-03-27T00:36:30.936Z,7.50
2019-03-27T00:38:59.375Z,9.97
2019-03-27T00:41:28.032Z,7.60
2019-03-27T00:43:56.321Z,8.63
2019-03-27T00:46:24.667Z,4.50
2019-03-27T00:48:53.021Z,6.33
2019-03-27T00:51:21.410Z,6.77
2019-03-27T00:53:49.706Z,6.67
2019-03-27T00:56:18.033Z,8.67
2019-03-27T00:58:46.346Z,8.80
2019-03-27T01:01:14.952Z,6.57
2019-03-27T01:03:43.278Z,5.63
2019-03-27T01:06:11.596Z,7.40
2019-03-27T01:08:39.970Z,6.40
2019-03-27T01:11:08.240Z,6.90
2019-03-27T01:13:36.600Z,8.43
2019-03-27T01:16:04.867Z,5.57
2019-03-27T01:18:33.198Z,8.60
2019-03-27T01:21:01.478Z,6.50
2019-03-27T01:23:29.854Z,7.10
2019-03-27T01:25:58.108Z,6.43
2019-03-27T01:28:26.408Z,6.30
2019-03-27T01:30:54.736Z,9.27
2019-03-27T01:33:22.996Z,6.93
2019-03-27T01:35:51.298Z,12.67
2019-03-27T01:38:19.610Z,9.53
2019-03-27T01:40:47.876Z,8.03
2019-03-27T01:43:16.189Z,11.70
2019-03-27T01:45:52.924Z,7.03
2019-03-27T01:48:14.418Z,9.60
2019-03-27T01:50:42.813Z,9.40
2019-03-27T01:53:11.101Z,10.37
2019-03-27T01:55:39.367Z,12.43
2019-03-27T01:58:07.650Z,9.90
2019-03-27T02:00:35.972Z,14.07
2019-03-27T02:03:04.533Z,11.60
2019-03-27T02:05:32.794Z,11.53
2019-03-27T02:08:01.105Z,11.53
2019-03-27T02:10:29.406Z,12.47
2019-03-27T02:12:57.759Z,10.20
2019-03-27T02:15:26.006Z,11.70
2019-03-27T02:17:54.364Z,12.13
2019-03-27T02:20:22.654Z,11.37
2019-03-27T02:22:50.978Z,13.00
2019-03-27T02:25:19.288Z,15.37
2019-03-27T02:27:47.555Z,13.17
2019-03-27T02:30:15.819Z,16.30
2019-03-27T02:32:44.062Z,14.10
2019-03-27T02:35:12.435Z,11.37
2019-03-27T02:37:40.761Z,11.90
2019-03-27T02:40:09.270Z,12.77
2019-03-27T02:42:37.579Z,13.93
2019-03-27T02:45:06.061Z,13.80
2019-03-27T02:47:34.468Z,12.20
2019-03-27T02:50:02.904Z,14.53
2019-03-27T02:52:31.270Z,15.63
2019-03-27T02:54:59.613Z,14.07
2019-03-27T02:57:27.872Z,17.00
2019-03-27T02:59:56.148Z,12.90
2019-03-27T03:02:24.445Z,16.60
2019-03-27T03:04:52.761Z,15.93
2019-03-27T03:07:21.012Z,15.20
2019-03-27T03:09:49.451Z,14.77
2019-03-27T03:12:17.811Z,13.80
2019-03-27T03:14:46.109Z,15.53
2019-03-27T03:17:14.535Z,18.10
2019-03-27T03:19:42.863Z,14.50
2019-03-27T03:22:11.148Z,16.57
2019-03-27T03:24:39.445Z,16.07
2019-03-27T03:27:07.751Z,14.23
2019-03-27T03:29:36.037Z,15.07
2019-03-27T03:32:04.308Z,16.33
2019-03-27T03:34:32.605Z,18.17
2019-03-27T03:37:00.922Z,13.83
2019-03-27T03:39:29.349Z,16.23
2019-03-27T03:41:57.615Z,14.97
2019-03-27T03:44:25.938Z,14.27
2019-03-27T03:47:00.039Z,15.70
2019-03-27T03:49:24.225Z,13.73
2019-03-27T03:51:52.558Z,16.03
2019-03-27T03:54:20.888Z,13.47
2019-03-27T03:56:49.221Z,12.40
2019-03-27T03:59:17.493Z,17.13
2019-03-27T04:01:45.968Z,17.87
2019-03-27T04:04:14.327Z,15.67
2019-03-27T04:06:42.737Z,15.70
2019-03-27T04:09:11.051Z,12.33
2019-03-27T04:11:39.388Z,12.50
2019-03-27T04:14:07.723Z,15.63
2019-03-27T04:16:36.067Z,15.03
2019-03-27T04:19:04.456Z,11.47
2019-03-27T04:21:32.761Z,15.73
2019-03-27T04:24:01.045Z,13.07
2019-03-27T04:26:33.408Z,15.23
2019-03-27T04:28:59.368Z,14.80
2019-03-27T04:31:27.670Z,12.80
2019-03-27T04:33:55.966Z,15.90
2019-03-27T04:36:24.328Z,14.40
2019-03-27T04:38:52.817Z,12.33
2019-03-27T04:41:21.089Z,19.07
2019-03-27T04:43:49.392Z,16.53
2019-03-27T04:46:17.706Z,17.67
2019-03-27T04:48:45.992Z,15.90
2019-03-27T04:51:14.339Z,16.77
2019-03-27T04:53:42.637Z,21.20
2019-03-27T04:56:10.917Z,18.10
2019-03-27T04:58:39.233Z,14.27
2019-03-27T05:01:07.494Z,16.20
2019-03-27T05:03:35.750Z,14.50
2019-03-27T05:06:04.068Z,15.70
2019-03-27T05:08:32.307Z,16.17
2019-03-27T05:11:00.677Z,20.90
2019-03-27T05:13:28.974Z,28.10
2019-03-27T05:15:59.350Z,19.70
2019-03-27T05:18:27.594Z,22.53
2019-03-27T05:20:55.927Z,28.20
2019-03-27T05:23:24.208Z,21.33
2019-03-27T05:25:52.599Z,28.70
2019-03-27T05:28:20.909Z,20.83
2019-03-27T05:30:49.295Z,25.90
2019-03-27T05:33:17.585Z,24.03
2019-03-27T05:35:45.862Z,25.47
2019-03-27T05:38:15.213Z,19.17
2019-03-27T05:40:43.674Z,24.53
2019-03-27T05:43:11.976Z,24.30
2019-03-27T05:45:44.034Z,22.83
2019-03-27T05:48:12.318Z,16.97
2019-03-27T05:50:40.628Z,25.23
2019-03-27T05:53:08.906Z,31.40
2019-03-27T05:55:37.300Z,25.43
2019-03-27T05:58:05.820Z,22.30
2019-03-27T06:00:34.121Z,19.70
2019-03-27T06:03:03.354Z,23.70
2019-03-27T06:05:32.403Z,18.40
2019-03-27T06:08:01.291Z,23.22
2019-03-27T06:10:30.112Z,23.80
2019-03-27T06:12:58.967Z,19.47
2019-03-27T06:15:28.124Z,15.50
2019-03-27T06:17:57.134Z,23.97
2019-03-27T06:20:26.014Z,25.80
2019-03-27T06:22:54.883Z,24.70
2019-03-27T06:25:23.892Z,13.50
2019-03-27T06:27:52.590Z,25.70
2019-03-27T06:30:43.170Z,15.23
2019-03-27T06:33:14.715Z,24.37
2019-03-27T06:35:43.386Z,18.23
2019-03-27T06:38:11.851Z,21.13
2019-03-27T06:40:40.273Z,20.30
2019-03-27T06:43:08.761Z,17.90
2019-03-27T06:45:38.067Z,17.90
2019-03-27T06:48:09.168Z,16.03
2019-03-27T06:50:37.845Z,21.67
2019-03-27T06:53:06.605Z,17.50
2019-03-27T06:55:35.120Z,18.30
2019-03-27T06:58:06.862Z,21.00
2019-03-27T07:00:41.505Z,21.80
2019-03-27T07:03:10.833Z,20.67
2019-03-27T07:05:39.367Z,18.73
2019-03-27T07:08:07.968Z,18.53
2019-03-27T07:10:36.483Z,14.93
2019-03-27T07:13:04.730Z,16.47
2019-03-27T07:15:35.585Z,13.20
2019-03-27T07:18:03.062Z,18.00
2019-03-27T07:20:31.468Z,18.63
2019-03-27T07:22:59.898Z,15.07
2019-03-27T07:25:28.208Z,14.90
2019-03-27T07:27:56.586Z,12.60
2019-03-27T07:30:24.862Z,25.55
2019-03-27T07:32:53.254Z,18.37
2019-03-27T07:35:21.606Z,14.90
2019-03-27T07:37:49.868Z,18.67
2019-03-27T07:40:18.415Z,19.67
2019-03-27T07:42:47.628Z,15.83
2019-03-27T07:45:15.996Z,8.93
2019-03-27T07:47:44.310Z,15.00
2019-03-27T07:50:12.790Z,22.57
2019-03-27T07:52:41.185Z,13.23
2019-03-27T07:55:19.319Z,17.87
2019-03-27T07:57:40.051Z,14.97
2019-03-27T08:00:09.853Z,12.20
2019-03-27T08:02:38.129Z,13.90
2019-03-27T08:05:06.550Z,13.83
2019-03-27T08:07:35.314Z,22.30
2019-03-27T08:10:03.671Z,16.57
2019-03-27T08:12:32.510Z,14.30
2019-03-27T08:15:00.791Z,17.63
2019-03-27T08:17:29.053Z,11.27
2019-03-27T08:19:57.304Z,14.77
2019-03-27T08:22:25.989Z,19.50
2019-03-27T08:24:54.315Z,17.93
2019-03-27T08:27:22.795Z,16.20
2019-03-27T08:29:51.180Z,11.70
2019-03-27T08:32:19.434Z,12.57
2019-03-27T08:34:47.721Z,12.70
2019-03-27T08:37:16.011Z,14.07
2019-03-27T08:39:44.306Z,13.83
2019-03-27T08:42:12.788Z,12.67
2019-03-27T08:44:44.115Z,11.50
2019-03-27T08:47:13.785Z,15.63
2019-03-27T08:49:42.662Z,16.07
2019-03-27T08:52:16.014Z,19.57
2019-03-27T08:54:44.279Z,17.70
2019-03-27T08:57:13.479Z,17.13
2019-03-27T08:59:41.819Z,12.97
2019-03-27T09:02:10.306Z,17.57
2019-03-27T09:04:39.435Z,15.30
2019-03-27T09:07:07.892Z,15.93
2019-03-27T09:09:36.295Z,16.67
2019-03-27T09:12:04.593Z,17.30
2019-03-27T09:14:33.539Z,12.87
2019-03-27T09:17:06.403Z,18.17
2019-03-27T09:19:36.352Z,13.33
2019-03-27T09:22:06.764Z,13.10
2019-03-27T09:24:35.480Z,14.43
2019-03-27T09:27:07.213Z,15.90
2019-03-27T09:29:36.103Z,17.07
2019-03-27T09:32:04.380Z,10.53
2019-03-27T09:34:32.843Z,13.20
2019-03-27T09:37:01.413Z,11.07
2019-03-27T09:39:31.963Z,11.70
2019-03-27T09:42:02.194Z,10.80
2019-03-27T09:44:34.404Z,16.60
2019-03-27T09:47:05.270Z,12.43
2019-03-27T09:49:33.788Z,12.40
2019-03-27T09:52:03.321Z,13.60
2019-03-27T09:54:32.286Z,13.60
2019-03-27T09:57:02.090Z,13.47
2019-03-27T09:59:31.905Z,14.63
2019-03-27T10:02:00.285Z,12.60
2019-03-27T10:04:29.102Z,13.03
2019-03-27T10:06:57.664Z,15.40
2019-03-27T10:09:26.530Z,15.97
2019-03-27T10:11:54.899Z,15.30
2019-03-27T10:14:23.393Z,12.53
2019-03-27T10:16:51.765Z,12.33
2019-03-27T10:19:20.107Z,14.50
2019-03-27T10:21:48.760Z,13.90
2019-03-27T10:24:17.116Z,13.60
2019-03-27T10:26:46.640Z,13.07
2019-03-27T10:29:17.587Z,12.80
2019-03-27T10:31:46.098Z,14.60
2019-03-27T10:34:15.290Z,17.10
2019-03-27T10:36:44.375Z,15.67
2019-03-27T10:39:14.301Z,13.33
2019-03-27T10:41:42.996Z,14.13
2019-03-27T10:44:11.327Z,17.13
2019-03-27T10:46:39.667Z,12.73
2019-03-27T10:49:07.958Z,13.57
2019-03-27T10:51:36.359Z,10.37
2019-03-27T10:54:04.688Z,16.50
2019-03-27T10:56:33.605Z,12.03
2019-03-27T10:59:02.339Z,11.80
2019-03-27T11:01:31.823Z,13.40
2019-03-27T11:04:01.112Z,13.13
2019-03-27T11:06:30.043Z,18.03
2019-03-27T11:08:58.503Z,15.13
2019-03-27T11:11:28.263Z,11.87
2019-03-27T11:13:56.614Z,15.70
2019-03-27T11:16:25.203Z,15.37
2019-03-27T11:18:55.043Z,12.73
2019-03-27T11:21:24.121Z,9.47
2019-03-27T11:23:53.776Z,10.07
2019-03-27T11:26:26.088Z,12.90
2019-03-27T11:28:55.304Z,10.53
2019-03-27T11:31:24.269Z,12.83
2019-03-27T11:33:52.599Z,11.67
2019-03-27T11:36:21.108Z,13.13
2019-03-27T11:38:51.153Z,13.00
2019-03-27T11:41:23.006Z,8.87
2019-03-27T11:43:57.960Z,11.13
2019-03-27T11:46:27.523Z,10.93
2019-03-27T11:48:56.084Z,10.20
2019-03-27T11:51:24.599Z,9.13
2019-03-27T11:53:52.947Z,11.97
2019-03-27T11:56:21.282Z,11.07
2019-03-27T11:58:49.511Z,11.70
2019-03-27T12:01:17.797Z,11.77
2019-03-27T12:03:46.198Z,10.20
2019-03-27T12:06:14.830Z,13.10
2019-03-27T12:08:43.048Z,5.77
2019-03-27T12:11:11.549Z,9.77
2019-03-27T12:13:39.980Z,10.37
2019-03-27T12:16:08.368Z,9.43
2019-03-27T12:18:36.626Z,7.03
2019-03-27T12:21:05.073Z,9.67
2019-03-27T12:23:33.406Z,6.67
2019-03-27T12:26:01.728Z,9.07
2019-03-27T12:28:30.185Z,8.13
2019-03-27T12:31:03.051Z,9.40
2019-03-27T12:33:32.364Z,10.00
2019-03-27T12:36:00.759Z,11.23
2019-03-27T12:38:29.421Z,8.53
2019-03-27T12:44:41.656Z,11.40
2019-03-27T12:47:10.349Z,11.57
2019-03-27T12:49:39.368Z,8.90
2019-03-27T12:52:09.374Z,11.17
2019-03-27T12:54:39.281Z,6.90
2019-03-27T12:57:07.638Z,11.83
2019-03-27T12:59:36.880Z,6.20
2019-03-27T13:02:05.254Z,8.57
2019-03-27T13:04:37.999Z,10.43
2019-03-27T13:07:06.710Z,8.90
2019-03-27T13:09:36.547Z,8.47
2019-03-27T13:12:05.403Z,8.68
2019-03-27T13:14:33.857Z,8.37
2019-03-27T13:17:02.151Z,6.57
2019-03-27T13:19:30.670Z,8.10
2019-03-27T13:21:59.142Z,7.60
2019-03-27T13:24:27.582Z,9.83
2019-03-27T13:26:56.567Z,8.63
2019-03-27T13:29:24.884Z,8.50
2019-03-27T13:31:53.998Z,9.53
2019-03-27T13:34:22.298Z,7.87
2019-03-27T13:36:52.414Z,7.90
2019-03-27T13:39:21.056Z,8.40
2019-03-27T13:41:50.405Z,9.93
2019-03-27T13:44:18.866Z,7.70
2019-03-27T13:46:47.299Z,6.30
2019-03-27T13:49:15.567Z,6.60
2019-03-27T13:51:43.972Z,9.73
2019-03-27T13:54:13.384Z,9.03
2019-03-27T13:56:46.464Z,6.27
2019-03-27T13:59:16.344Z,8.43
2019-03-27T14:01:45.555Z,6.03
2019-03-27T14:04:13.832Z,7.17
2019-03-27T14:06:44.708Z,11.50
2019-03-27T14:09:13.727Z,7.47
2019-03-27T14:11:42.008Z,5.57
2019-03-27T14:14:11.444Z,6.83
2019-03-27T14:16:40.063Z,10.10
2019-03-27T14:19:09.446Z,10.87
2019-03-27T14:21:37.824Z,5.57
2019-03-27T14:24:06.056Z,9.00
2019-03-27T14:26:44.913Z,8.77
2019-03-27T14:29:04.522Z,8.57
2019-03-27T14:31:32.807Z,8.03
2019-03-27T14:34:01.063Z,6.47
2019-03-27T14:36:29.418Z,6.23
2019-03-27T14:38:57.705Z,7.93
2019-03-27T14:41:26.057Z,6.20
2019-03-27T14:43:54.375Z,9.47
2019-03-27T14:46:22.759Z,9.90
2019-03-27T14:48:51.033Z,8.67
2019-03-27T14:51:19.598Z,8.77
2019-03-27T14:53:47.937Z,11.73
2019-03-27T14:56:21.793Z,8.23
2019-03-27T14:58:50.224Z,10.70
2019-03-27T15:01:18.422Z,9.87
2019-03-27T15:03:46.715Z,13.77
2019-03-27T15:06:14.974Z,9.93
2019-03-27T15:08:43.276Z,11.97
2019-03-27T15:11:11.673Z,5.47
2019-03-27T15:13:40.011Z,7.77
2019-03-27T15:16:08.283Z,6.90
2019-03-27T15:18:36.629Z,5.90
2019-03-27T15:21:04.914Z,6.47
2019-03-27T15:23:33.225Z,6.87
2019-03-27T15:26:01.839Z,6.23
2019-03-27T15:28:30.151Z,6.50
2019-03-27T15:30:58.420Z,8.97
2019-03-27T15:33:27.069Z,7.20
2019-03-27T15:35:55.353Z,9.13
2019-03-27T15:38:23.612Z,6.87
2019-03-27T15:40:53.889Z,8.80
2019-03-27T15:43:22.107Z,7.47
2019-03-27T15:45:50.697Z,8.60
2019-03-27T15:48:18.931Z,7.67
2019-03-27T15:50:55.521Z,8.90
2019-03-27T15:53:17.161Z,5.20
2019-03-27T15:55:45.527Z,7.60
2019-03-27T15:58:13.818Z,6.93
2019-03-27T16:00:42.310Z,6.90
2019-03-27T16:03:10.621Z,6.83
2019-03-27T16:05:39.007Z,12.33
2019-03-27T16:08:07.387Z,7.30
2019-03-27T16:10:36.183Z,8.07
2019-03-27T16:13:04.799Z,8.43
2019-03-27T16:15:36.688Z,9.80
2019-03-27T16:18:03.475Z,9.37
2019-03-27T16:20:31.772Z,9.33
2019-03-27T16:23:00.055Z,7.07
2019-03-27T16:25:32.471Z,8.20
2019-03-27T16:28:01.260Z,11.80
2019-03-27T16:30:29.550Z,6.77
2019-03-27T16:32:58.755Z,11.30
2019-03-27T16:35:27.533Z,8.30
2019-03-27T16:37:56.028Z,7.80
2019-03-27T16:40:42.834Z,12.73
2019-03-27T16:43:11.444Z,9.77
2019-03-27T16:45:40.385Z,10.23
2019-03-27T16:48:17.925Z,9.00
2019-03-27T16:50:48.500Z,9.57
2019-03-27T16:53:20.649Z,9.20
2019-03-27T16:55:49.013Z,8.00
2019-03-27T16:58:19.026Z,9.43
2019-03-27T17:00:47.723Z,8.57
2019-03-27T17:03:16.982Z,9.80
2019-03-27T17:05:53.988Z,13.63
2019-03-27T17:08:17.214Z,8.33
2019-03-27T17:10:49.567Z,10.93
2019-03-27T17:13:20.375Z,8.30
2019-03-27T17:15:49.092Z,6.93
2019-03-27T17:18:18.347Z,8.50
2019-03-27T17:20:46.918Z,9.70
2019-03-27T17:23:18.260Z,6.97
2019-03-27T17:25:45.602Z,9.03
2019-03-27T17:28:13.938Z,8.20
2019-03-27T17:30:42.206Z,9.70
2019-03-27T17:33:10.604Z,10.82
2019-03-27T17:35:38.895Z,5.77
2019-03-27T17:38:10.745Z,7.47
2019-03-27T17:40:37.383Z,13.37
2019-03-27T17:43:05.810Z,7.43
2019-03-27T17:45:34.199Z,9.50
2019-03-27T17:48:02.475Z,8.67
2019-03-27T17:50:30.918Z,10.47
2019-03-27T17:52:59.258Z,8.13
2019-03-27T17:55:27.541Z,8.60
2019-03-27T17:57:56.168Z,8.67
2019-03-27T18:00:43.160Z,10.23
2019-03-27T18:03:11.585Z,12.73
2019-03-27T18:05:41.933Z,10.87
2019-03-27T18:08:10.229Z,9.10
2019-03-27T18:10:38.836Z,8.50
2019-03-27T18:13:07.157Z,9.33
2019-03-27T18:15:35.757Z,9.67
2019-03-27T18:18:04.789Z,6.27
2019-03-27T18:20:33.739Z,6.13
2019-03-27T18:23:02.908Z,6.77
2019-03-27T18:25:32.054Z,7.10
2019-03-27T18:28:00.452Z,10.23
2019-03-27T18:30:28.898Z,8.17
2019-03-27T18:32:57.374Z,7.00
2019-03-27T18:35:26.010Z,9.47
2019-03-27T18:37:54.335Z,7.00
2019-03-27T18:40:23.249Z,8.83
2019-03-27T18:42:51.663Z,6.20
2019-03-27T18:45:19.967Z,7.23
2019-03-27T18:47:48.318Z,6.40
2019-03-27T18:50:16.518Z,7.37
2019-03-27T18:52:44.789Z,9.00
2019-03-27T18:55:25.508Z,7.67
2019-03-27T18:57:42.952Z,7.97
2019-03-27T19:00:11.336Z,7.43
2019-03-27T19:02:40.631Z,6.50
2019-03-27T19:05:09.338Z,5.97
2019-03-27T19:07:37.628Z,8.00
2019-03-27T19:10:05.956Z,5.43
2019-03-27T19:12:34.251Z,6.00
2019-03-27T19:15:02.531Z,7.37
2019-03-27T19:17:30.875Z,12.57
2019-03-27T19:19:59.229Z,7.97
2019-03-27T19:22:27.506Z,8.03
2019-03-27T19:24:55.753Z,8.33
2019-03-27T19:27:24.041Z,8.13
2019-03-27T19:29:52.350Z,8.48
2019-03-27T19:32:20.625Z,7.07
2019-03-27T19:34:51.092Z,6.97
2019-03-27T19:37:18.811Z,7.80
2019-03-27T19:39:47.241Z,7.27
2019-03-27T19:42:15.682Z,9.27
2019-03-27T19:44:44.189Z,9.90
2019-03-27T19:47:12.458Z,9.18
2019-03-27T19:49:40.766Z,6.50
2019-03-27T19:52:09.028Z,6.13
2019-03-27T19:54:37.401Z,7.25
2019-03-27T19:57:06.271Z,7.90
2019-03-27T19:59:34.803Z,6.47
2019-03-27T20:02:03.021Z,7.07
2019-03-27T20:04:31.288Z,10.43
2019-03-27T20:06:59.707Z,11.70
2019-03-27T20:09:27.958Z,8.77
2019-03-27T20:11:56.289Z,8.00
2019-03-27T20:14:24.531Z,8.03
2019-03-27T20:16:52.917Z,11.20
2019-03-27T20:19:21.232Z,9.47
2019-03-27T20:21:49.537Z,11.00
2019-03-27T20:24:17.898Z,9.50
2019-03-27T20:26:46.182Z,9.07
2019-03-27T20:29:14.488Z,10.57
2019-03-27T20:31:43.779Z,10.37
2019-03-27T20:34:12.110Z,8.13
2019-03-27T20:36:40.603Z,8.50
2019-03-27T20:39:09.451Z,12.47
2019-03-27T20:41:37.806Z,7.90
2019-03-27T20:44:06.231Z,9.53
2019-03-27T20:46:34.524Z,12.60
2019-03-27T20:49:02.826Z,9.87
2019-03-27T20:51:31.150Z,11.43
2019-03-27T20:54:01.414Z,11.40
2019-03-27T20:56:29.448Z,10.63
2019-03-27T20:59:01.036Z,10.07
2019-03-27T21:01:27.678Z,12.70
2019-03-27T21:03:55.978Z,12.77
2019-03-27T21:06:24.396Z,14.87
2019-03-27T21:08:52.751Z,15.77
2019-03-27T21:11:21.221Z,15.17
2019-03-27T21:13:50.312Z,10.63
2019-03-27T21:16:18.983Z,12.90
2019-03-27T21:18:47.426Z,10.60
2019-03-27T21:21:15.916Z,11.53
2019-03-27T21:23:44.425Z,11.00
2019-03-27T21:26:14.152Z,16.37
2019-03-27T21:28:42.468Z,12.03
2019-03-27T21:31:11.088Z,15.20
2019-03-27T21:33:39.552Z,13.13
2019-03-27T21:36:07.911Z,13.50
2019-03-27T21:38:36.294Z,16.60
2019-03-27T21:41:04.633Z,13.70
2019-03-27T21:43:33.196Z,16.50
2019-03-27T21:46:01.518Z,21.37
2019-03-27T21:48:29.861Z,15.30
2019-03-27T21:50:58.201Z,17.63
2019-03-27T21:53:26.560Z,18.70
2019-03-27T21:55:54.879Z,19.50
2019-03-27T21:58:23.254Z,22.23
2019-03-27T22:00:51.559Z,21.90
2019-03-27T22:03:20.159Z,22.87
2019-03-27T22:05:48.653Z,26.07
2019-03-27T22:08:16.958Z,22.80
2019-03-27T22:10:45.338Z,26.73
2019-03-27T22:13:14.669Z,24.27
2019-03-27T22:15:43.061Z,23.93
2019-03-27T22:18:11.506Z,25.17
2019-03-27T22:20:40.076Z,27.13
2019-03-27T22:23:08.656Z,24.93
2019-03-27T22:25:37.285Z,23.73
2019-03-27T22:28:05.553Z,22.10
2019-03-27T22:30:33.912Z,27.70
2019-03-27T22:33:02.312Z,22.10
2019-03-27T22:35:31.607Z,23.33
2019-03-27T22:38:00.153Z,21.87
2019-03-27T22:40:28.580Z,24.63
2019-03-27T22:42:57.111Z,23.83
2019-03-27T22:45:25.450Z,25.00
2019-03-27T22:47:53.845Z,23.90
2019-03-27T22:50:22.296Z,22.77
2019-03-27T22:52:50.781Z,25.00
2019-03-27T22:55:19.206Z,25.03
2019-03-27T22:57:47.571Z,21.77
2019-03-27T23:00:15.901Z,24.67
2019-03-27T23:02:44.328Z,25.57
2019-03-27T23:05:12.684Z,24.20
2019-03-27T23:07:40.987Z,22.50
2019-03-27T23:10:09.437Z,24.70
2019-03-27T23:12:37.835Z,23.03
2019-03-27T23:15:06.588Z,22.57
2019-03-27T23:17:34.897Z,22.80
2019-03-27T23:20:03.209Z,21.87
2019-03-27T23:22:31.593Z,23.93
2019-03-27T23:24:59.901Z,23.70
2019-03-27T23:27:28.580Z,21.87
2019-03-27T23:29:58.410Z,23.20
2019-03-27T23:32:27.000Z,23.17
2019-03-27T23:34:55.864Z,24.07
2019-03-27T23:37:24.134Z,22.98
2019-03-27T23:39:53.532Z,21.73
2019-03-27T23:42:21.851Z,19.93
2019-03-27T23:44:50.229Z,22.93
2019-03-27T23:47:18.608Z,20.33
2019-03-27T23:49:46.978Z,20.70
2019-03-27T23:52:15.210Z,20.67
2019-03-27T23:54:43.634Z,19.73
2019-03-27T23:57:12.119Z,20.33
2019-03-27T23:59:40.484Z,18.83
